Silver Cloud — C6MQ5 — position and weather

sailwx.info

Track history (hours):
 
Tides and Currents Weather Stations Pressure Air Temp Water Temp Dewpoint Dewpoint Depression Visibility Wind Speed Wind Dir Waves Ship Positions

Silver Cloud

Operator: V Ships Leisure SAM

Last reported at 2017-Aug-18 10:29 UTC. Time now 2017-Aug-18 10:51 UTC.
Position N 55°43' E 012°38'.

Length 156 m; draft 5.7 m.

Type: Passenger vessel. MMSI: 309027000.

Date/timePositionNaut miles runAvg speedWind from/ knotsBaromVisibWave heightAir tempDewpointWater temp
2017-Aug-18 10:29N 55°43' E 012°38'0 0.0
2017-Aug-18 09:59N 55°43' E 012°38'0 0.0
2017-Aug-18 09:29N 55°43' E 012°38'0 0.0
2017-Aug-18 08:59N 55°43' E 012°38'0 0.0
2017-Aug-18 08:29N 55°43' E 012°38'0 0.0
2017-Aug-18 07:59N 55°43' E 012°38'0 0.0
2017-Aug-18 07:29N 55°43' E 012°38'0 0.0
2017-Aug-18 06:59N 55°43' E 012°38'0 0.0
2017-Aug-18 06:29N 55°43' E 012°38'0 0.0
2017-Aug-18 05:59N 55°43' E 012°38'0 0.0
2017-Aug-18 05:29N 55°43' E 012°38'0 0.0
2017-Aug-18 04:59N 55°43' E 012°38'0 0.0
2017-Aug-18 04:29N 55°43' E 012°38'0 0.0
2017-Aug-18 03:59N 55°43' E 012°38'0 0.0
2017-Aug-18 03:29N 55°43' E 012°38'0 0.0
2017-Aug-18 03:00N 55°43' E 012°38'2 3.7
2017-Aug-18 02:31N 55°44' E 012°41'510.4
2017-Aug-18 02:00N 55°39' E 012°42'611.6
2017-Aug-18 01:31N 55°33' E 012°43'4 7.4
2017-Aug-18 01:00N 55°29' E 012°43'510.1
2017-Aug-18 00:30N 55°24' E 012°41'510.3
2017-Aug-18 00:00N 55°19' E 012°41'510.1
2017-Aug-17 23:30N 55°17' E 012°49'510.4
2017-Aug-17 22:59N 55°15' E 012°58'5 9.6
2017-Aug-17 22:25N 55°11' E 013°04'410.0
2017-Aug-17 22:00N 55°08' E 013°08'15 9.8
2017-Aug-17 20:29N 54°56' E 013°24'5 9.8
2017-Aug-17 20:00N 54°52' E 013°29'5 9.9
2017-Aug-17 19:30N 54°48' E 013°33'5 9.9
2017-Aug-17 19:00N 54°43' E 013°38'5 9.8
2017-Aug-17 18:30N 54°39' E 013°42'5 9.7
2017-Aug-17 18:00N 54°35' E 013°44'4 8.8
2017-Aug-17 17:30N 54°30' E 013°43'4 8.5
2017-Aug-17 17:00N 54°28' E 013°36'1 0.1
2017-Aug-17 05:38N 54°29' E 013°35'0 1.0
2017-Aug-17 05:30N 54°29' E 013°35'3 5.9
2017-Aug-17 05:00N 54°28' E 013°40'714.0
2017-Aug-17 04:30N 54°28' E 013°52'713.1
2017-Aug-17 03:57N 54°29' E 014°05'714.1
2017-Aug-17 03:25N 54°31' E 014°17'614.8
2017-Aug-17 03:00N 54°32' E 014°28'715.0
2017-Aug-17 02:30N 54°34' E 014°40'815.1
2017-Aug-17 02:00N 54°36' E 014°52'815.2
2017-Aug-17 01:30N 54°37' E 015°05'815.6
2017-Aug-17 01:01N 54°39' E 015°18'815.5
2017-Aug-17 00:30N 54°41' E 015°32'815.6
2017-Aug-17 00:00N 54°43' E 015°45'815.4
2017-Aug-16 23:30N 54°44' E 015°58'816.4
2017-Aug-16 23:00N 54°46' E 016°11'816.1
2017-Aug-16 22:29N 54°48' E 016°26'1016.1
2017-Aug-16 21:51N 54°49' E 016°43'1016.3
2017-Aug-16 21:13N 54°52' E 017°00'3816.2
2017-Aug-16 18:51N 54°57' E 018°07'715.9
2017-Aug-16 18:26N 54°57' E 018°18'716.3
2017-Aug-16 18:00N 54°57' E 018°30'816.2
2017-Aug-16 17:30N 54°54' E 018°43'816.2
2017-Aug-16 17:00N 54°49' E 018°54'714.3
2017-Aug-16 16:30N 54°42' E 018°59'815.9
2017-Aug-16 16:00N 54°35' E 018°53'815.7
2017-Aug-16 15:30N 54°29' E 018°44'5 9.2
2017-Aug-16 15:00N 54°25' E 018°39'1 1.7
2017-Aug-16 14:29N 54°24' E 018°40'0 0.0
2017-Aug-16 13:59N 54°24' E 018°40'0 0.0
2017-Aug-16 13:29N 54°24' E 018°40'0 0.0
2017-Aug-16 12:59N 54°24' E 018°40'0 0.0
2017-Aug-16 12:29N 54°24' E 018°40'0 0.0
2017-Aug-16 11:59N 54°24' E 018°40'0 0.0
2017-Aug-16 11:29N 54°24' E 018°40'0 0.0
2017-Aug-16 10:59N 54°24' E 018°40'0 0.0
2017-Aug-16 10:29N 54°24' E 018°40'0 0.0
2017-Aug-16 09:59N 54°24' E 018°40'0 0.0
2017-Aug-16 09:29N 54°24' E 018°40'0 0.0
2017-Aug-16 08:59N 54°24' E 018°40'0 0.0
2017-Aug-16 08:29N 54°24' E 018°40'0 0.0
2017-Aug-16 07:59N 54°24' E 018°40'0 0.0
2017-Aug-16 07:29N 54°24' E 018°40'0 0.0
2017-Aug-16 06:59N 54°24' E 018°40'0 0.0
2017-Aug-16 06:29N 54°24' E 018°40'0 0.0
2017-Aug-16 05:59N 54°24' E 018°40'0 0.0
2017-Aug-16 05:29N 54°24' E 018°40'0 0.9
2017-Aug-16 05:01N 54°25' E 018°40'3 7.0
2017-Aug-16 04:31N 54°28' E 018°42'5 9.5
2017-Aug-16 04:01N 54°32' E 018°47'815.2
2017-Aug-16 03:30N 54°38' E 018°54'815.4
2017-Aug-16 03:00N 54°45' E 018°59'815.5
2017-Aug-16 02:30N 54°52' E 018°56'815.4
2017-Aug-16 02:00N 54°60' E 018°51'815.1
2017-Aug-16 01:30N 55°07' E 018°46'815.1
2017-Aug-16 01:01N 55°14' E 018°41'816.0
2017-Aug-16 00:30N 55°21' E 018°36'816.0
2017-Aug-16 00:00N 55°29' E 018°31'815.7
2017-Aug-15 23:30N 55°36' E 018°28'816.1
2017-Aug-15 23:00N 55°44' E 018°24'816.3
2017-Aug-15 22:30N 55°52' E 018°19'816.3
2017-Aug-15 22:00N 55°59' E 018°14'1116.0
2017-Aug-15 21:19N 56°10' E 018°08'516.2
2017-Aug-15 21:00N 56°15' E 018°07'816.2
2017-Aug-15 20:30N 56°23' E 018°03'816.3
2017-Aug-15 20:01N 56°31' E 018°01'816.3
2017-Aug-15 19:30N 56°39' E 017°57'816.4
2017-Aug-15 19:00N 56°47' E 017°55'816.4
2017-Aug-15 18:30N 56°55' E 017°52'816.5
2017-Aug-15 18:00N 57°03' E 017°50'816.2
2017-Aug-15 17:30N 57°11' E 017°47'32 2.7
2017-Aug-15 05:48N 57°38' E 018°17'1 2.5
2017-Aug-15 05:30N 57°38' E 018°15'4812.3
2017-Aug-15 01:38N 58°22' E 018°48'213.0
2017-Aug-15 01:30N 58°24' E 018°50'611.4
2017-Aug-15 01:01N 58°29' E 018°54'713.1
2017-Aug-15 00:30N 58°35' E 018°60'611.5
2017-Aug-15 00:00N 58°40' E 019°04'612.6
2017-Aug-14 23:30N 58°46' E 019°10'612.1
2017-Aug-14 23:00N 58°51' E 019°16'612.0
2017-Aug-14 22:30N 58°56' E 019°21'612.1
2017-Aug-14 22:00N 59°01' E 019°27'713.2
2017-Aug-14 21:30N 59°07' E 019°33'611.9
2017-Aug-14 21:00N 59°13' E 019°39'611.4
2017-Aug-14 20:30N 59°18' E 019°44'713.7
2017-Aug-14 20:00N 59°24' E 019°50'510.9
2017-Aug-14 19:30N 59°28' E 019°55'511.0
2017-Aug-14 19:00N 59°34' E 019°58'611.4
2017-Aug-14 18:30N 59°39' E 019°54'612.0
2017-Aug-14 18:00N 59°43' E 019°46'611.9
2017-Aug-14 17:30N 59°49' E 019°41'612.4
2017-Aug-14 17:00N 59°55' E 019°46'612.2
2017-Aug-14 16:30N 60°00' E 019°51'510.4
2017-Aug-14 16:00N 60°05' E 019°56'1 1.8
2017-Aug-14 15:30N 60°06' E 019°56'0 0.0
2017-Aug-14 15:00N 60°06' E 019°56'0 0.0
2017-Aug-14 14:30N 60°06' E 019°56'0 0.0
2017-Aug-14 14:00N 60°06' E 019°56'0 0.0
2017-Aug-14 13:30N 60°06' E 019°56'0 0.0
2017-Aug-14 13:00N 60°06' E 019°56'0 0.0
2017-Aug-14 12:30N 60°06' E 019°56'0 0.0
2017-Aug-14 12:00N 60°06' E 019°56'0 0.0
2017-Aug-14 11:30N 60°06' E 019°56'0 0.0
2017-Aug-14 11:00N 60°06' E 019°56'0 0.0
2017-Aug-14 10:30N 60°06' E 019°56'0 0.0
2017-Aug-14 10:00N 60°06' E 019°56'0 0.0
2017-Aug-14 09:30N 60°06' E 019°56'0 0.0
2017-Aug-14 09:00N 60°06' E 019°56'0 0.0
2017-Aug-14 08:30N 60°06' E 019°56'0 0.0
2017-Aug-14 08:00N 60°06' E 019°56'0 0.0
2017-Aug-14 07:30N 60°06' E 019°56'0 0.0
2017-Aug-14 07:00N 60°06' E 019°56'0 0.0
2017-Aug-14 06:30N 60°06' E 019°56'0 0.0
2017-Aug-14 06:00N 60°06' E 019°56'0 0.0
2017-Aug-14 05:30N 60°06' E 019°56'0 0.3
2017-Aug-14 05:01N 60°06' E 019°56'4 7.5
2017-Aug-14 04:30N 60°02' E 019°53'2 4.0
2017-Aug-14 04:00N 60°00' E 019°50'713.4
2017-Aug-14 03:31N 59°54' E 019°47'612.2
2017-Aug-14 03:00N 59°48' E 019°46'713.2
2017-Aug-14 02:31N 59°43' E 019°55'713.6
2017-Aug-14 02:01N 59°38' E 020°04'713.4
2017-Aug-14 01:30N 59°37' E 020°17'713.6
2017-Aug-14 01:00N 59°36' E 020°30'713.3
2017-Aug-14 00:30N 59°35' E 020°44'713.1
2017-Aug-14 00:00N 59°34' E 020°56'713.2
2017-Aug-13 23:31N 59°33' E 021°09'713.3
2017-Aug-13 23:01N 59°32' E 021°22'713.6
2017-Aug-13 22:31N 59°31' E 021°35'713.4
2017-Aug-13 22:01N 59°30' E 021°49'713.2
2017-Aug-13 21:30N 59°29' E 022°01'713.7
2017-Aug-13 21:00N 59°28' E 022°15'714.5
2017-Aug-13 20:30N 59°31' E 022°28'815.1
2017-Aug-13 20:00N 59°34' E 022°42'714.8
2017-Aug-13 19:30N 59°36' E 022°56'714.7
2017-Aug-13 19:00N 59°38' E 023°10'714.4
2017-Aug-13 18:30N 59°40' E 023°24'714.1
2017-Aug-13 18:01N 59°41' E 023°37'714.7
2017-Aug-13 17:31N 59°42' E 023°52'714.2
2017-Aug-13 17:01N 59°44' E 024°05'714.0
2017-Aug-13 16:30N 59°46' E 024°19'714.3
2017-Aug-13 16:01N 59°48' E 024°32'714.6
2017-Aug-13 15:31N 59°52' E 024°44'714.6
2017-Aug-13 15:01N 59°57' E 024°56'714.5
2017-Aug-13 14:30N 60°04' E 024°58'611.5
2017-Aug-13 14:00N 60°10' E 024°59'1 1.4
2017-Aug-13 13:28N 60°10' E 024°58'0 0.0
2017-Aug-13 12:58N 60°10' E 024°58'0 0.0
2017-Aug-13 12:28N 60°10' E 024°58'0 0.0
2017-Aug-13 11:58N 60°10' E 024°58'0 0.0
2017-Aug-13 11:28N 60°10' E 024°58'0 0.0
2017-Aug-13 10:58N 60°10' E 024°58'0 0.0
2017-Aug-13 10:28N 60°10' E 024°58'0 0.0
2017-Aug-13 09:58N 60°10' E 024°58'0 0.0
2017-Aug-13 09:28N 60°10' E 024°58'0 0.0
2017-Aug-13 08:58N 60°10' E 024°58'0 0.0
2017-Aug-13 08:28N 60°10' E 024°58'0 0.0
2017-Aug-13 07:58N 60°10' E 024°58'0 0.0
2017-Aug-13 07:28N 60°10' E 024°58'0 0.0
2017-Aug-13 07:00N 60°10' E 024°58'0 0.0
2017-Aug-13 06:30N 60°10' E 024°58'0 0.0
2017-Aug-13 06:00N 60°10' E 024°58'0 0.0
2017-Aug-13 05:30N 60°10' E 024°58'0 0.0
2017-Aug-13 05:00N 60°10' E 024°58'0 0.0
2017-Aug-13 04:30N 60°10' E 024°58'0 0.8
2017-Aug-13 04:00N 60°10' E 024°58'510.5
2017-Aug-13 03:31N 60°05' E 024°58'612.1
2017-Aug-13 03:00N 59°58' E 024°57'612.3
2017-Aug-13 02:30N 59°56' E 025°08'815.2
2017-Aug-13 02:00N 59°55' E 025°23'815.1
2017-Aug-13 01:31N 59°55' E 025°38'714.7
2017-Aug-13 01:00N 59°56' E 025°52'714.9
2017-Aug-13 00:30N 59°58' E 026°07'714.8
2017-Aug-13 00:00N 59°60' E 026°21'715.0
2017-Aug-12 23:30N 60°01' E 026°36'815.5
2017-Aug-12 23:00N 60°00' E 026°51'815.0
2017-Aug-12 22:30N 60°00' E 027°06'815.7
2017-Aug-12 22:00N 60°04' E 027°20'816.5
2017-Aug-12 21:30N 60°09' E 027°34'816.0
2017-Aug-12 21:00N 60°12' E 027°49'816.3
2017-Aug-12 20:30N 60°10' E 028°05'815.8
2017-Aug-12 20:00N 60°07' E 028°20'815.6
2017-Aug-12 19:30N 60°03' E 028°33'816.2
2017-Aug-12 19:00N 60°03' E 028°49'816.4
2017-Aug-12 18:30N 60°02' E 029°06'916.3
2017-Aug-12 17:58N 60°02' E 029°23'1212.6
2017-Aug-12 17:03N 59°59' E 029°46'010.2
2017-Aug-12 17:00N 59°59' E 029°46'611.2
2017-Aug-12 16:30N 59°56' E 029°56'611.3
2017-Aug-12 16:00N 59°54' E 030°07'3 6.4
2017-Aug-12 15:30N 59°54' E 030°13'3 6.0
2017-Aug-12 15:01N 59°56' E 030°17'0 0.3
2017-Aug-12 14:28N 59°56' E 030°17'0 0.0
2017-Aug-12 13:58N 59°56' E 030°17'0 0.0
2017-Aug-12 13:28N 59°56' E 030°17'0 0.0
2017-Aug-12 12:58N 59°56' E 030°17'0 0.0
2017-Aug-12 12:28N 59°56' E 030°17'0 0.0
2017-Aug-12 11:58N 59°56' E 030°17'0 0.0
2017-Aug-12 11:28N 59°56' E 030°17'0 0.0
2017-Aug-12 10:58N 59°56' E 030°17'0 0.0
2017-Aug-12 10:28N 59°56' E 030°17'0 0.0
2017-Aug-12 09:58N 59°56' E 030°17'0 0.0
2017-Aug-12 09:28N 59°56' E 030°17'0 0.0
2017-Aug-12 08:58N 59°56' E 030°17'0 0.0
2017-Aug-12 08:28N 59°56' E 030°17'0 0.0
2017-Aug-12 07:55N 59°56' E 030°17'0 0.0
2017-Aug-12 07:28N 59°56' E 030°17'0 0.0
2017-Aug-12 06:58N 59°56' E 030°17'0 0.0
2017-Aug-12 06:28N 59°56' E 030°17'0 0.0
2017-Aug-12 05:58N 59°56' E 030°17'0 0.0
2017-Aug-12 05:28N 59°56' E 030°17'0 0.0
2017-Aug-12 04:58N 59°56' E 030°17'0 0.0
2017-Aug-12 04:28N 59°56' E 030°17'0 0.0
2017-Aug-12 03:58N 59°56' E 030°17'0 0.0
2017-Aug-12 03:28N 59°56' E 030°17'0 0.0
2017-Aug-12 02:58N 59°56' E 030°17'0 0.0
2017-Aug-12 02:28N 59°56' E 030°17'0 0.0
2017-Aug-12 01:58N 59°56' E 030°17'0 0.0
2017-Aug-12 01:28N 59°56' E 030°17'0 0.0
2017-Aug-12 00:58N 59°56' E 030°17'0 0.0
2017-Aug-12 00:28N 59°56' E 030°17'0 0.0
2017-Aug-11 23:58N 59°56' E 030°17'0 0.0
2017-Aug-11 23:28N 59°56' E 030°17'0 0.0
2017-Aug-11 22:58N 59°56' E 030°17'0 0.0
2017-Aug-11 22:28N 59°56' E 030°17'0 0.0
2017-Aug-11 21:58N 59°56' E 030°17'0 0.0
2017-Aug-11 21:28N 59°56' E 030°17'0 0.0
2017-Aug-11 20:58N 59°56' E 030°17'0 0.0
2017-Aug-11 20:28N 59°56' E 030°17'0 0.0
2017-Aug-11 19:58N 59°56' E 030°17'0 0.0
2017-Aug-11 19:28N 59°56' E 030°17'0 0.0
2017-Aug-11 18:58N 59°56' E 030°17'0 0.0
2017-Aug-11 18:28N 59°56' E 030°17'0 0.0
2017-Aug-11 17:58N 59°56' E 030°17'0 0.0
2017-Aug-11 17:28N 59°56' E 030°17'0 0.0
2017-Aug-11 16:58N 59°56' E 030°17'0 0.0
2017-Aug-11 16:28N 59°56' E 030°17'0 0.0
2017-Aug-11 15:58N 59°56' E 030°17'0 0.0
2017-Aug-11 15:28N 59°56' E 030°17'0 0.0
2017-Aug-11 14:59N 59°56' E 030°17'0 0.0
2017-Aug-11 13:58N 59°56' E 030°17'0 0.0
2017-Aug-11 13:25N 59°56' E 030°17'0 0.0
2017-Aug-11 12:58N 59°56' E 030°17'0 0.0
2017-Aug-11 12:28N 59°56' E 030°17'0 0.0
2017-Aug-11 11:58N 59°56' E 030°17'0 0.0
2017-Aug-11 11:28N 59°56' E 030°17'0 0.0
2017-Aug-11 10:55N 59°56' E 030°17'0 0.0
2017-Aug-11 10:28N 59°56' E 030°17'0 0.0
2017-Aug-11 09:58N 59°56' E 030°17'0 0.0
2017-Aug-11 09:28N 59°56' E 030°17'0 0.0
2017-Aug-11 08:58N 59°56' E 030°17'0 0.0
2017-Aug-11 08:28N 59°56' E 030°17'0 0.0
2017-Aug-11 07:58N 59°56' E 030°17'0 0.0
2017-Aug-11 07:28N 59°56' E 030°17'0 0.0
2017-Aug-11 06:58N 59°56' E 030°17'0 0.0
2017-Aug-11 06:28N 59°56' E 030°17'0 0.0
2017-Aug-11 05:58N 59°56' E 030°17'0 0.0
2017-Aug-11 05:28N 59°56' E 030°17'0 0.0
2017-Aug-11 04:58N 59°56' E 030°17'0 0.0
2017-Aug-11 04:28N 59°56' E 030°17'0 0.0
2017-Aug-11 03:58N 59°56' E 030°17'0 0.0
2017-Aug-11 03:28N 59°56' E 030°17'0 0.0
2017-Aug-11 02:58N 59°56' E 030°17'0 0.0
2017-Aug-11 02:28N 59°56' E 030°17'0 0.0
2017-Aug-11 01:58N 59°56' E 030°17'0 0.0
2017-Aug-11 01:28N 59°56' E 030°17'0 0.0
2017-Aug-11 00:58N 59°56' E 030°17'0 0.0
2017-Aug-11 00:28N 59°56' E 030°17'0 0.0
2017-Aug-10 23:58N 59°56' E 030°17'0 0.0
2017-Aug-10 23:28N 59°56' E 030°17'0 0.0
2017-Aug-10 22:58N 59°56' E 030°17'0 0.0
2017-Aug-10 22:28N 59°56' E 030°17'0 0.0
2017-Aug-10 21:58N 59°56' E 030°17'0 0.0
2017-Aug-10 21:28N 59°56' E 030°17'0 0.0
2017-Aug-10 20:58N 59°56' E 030°17'0 0.0
2017-Aug-10 20:28N 59°56' E 030°17'0 0.0
2017-Aug-10 19:58N 59°56' E 030°17'0 0.0
2017-Aug-10 19:28N 59°56' E 030°17'0 0.0
2017-Aug-10 18:58N 59°56' E 030°17'0 0.0
2017-Aug-10 18:28N 59°56' E 030°17'0 0.0
2017-Aug-10 17:58N 59°56' E 030°17'0 0.0
2017-Aug-10 17:28N 59°56' E 030°17'0 0.0
2017-Aug-10 16:58N 59°56' E 030°17'0 0.0
2017-Aug-10 16:28N 59°56' E 030°17'0 0.0
2017-Aug-10 15:58N 59°56' E 030°17'0 0.0
2017-Aug-10 15:28N 59°56' E 030°17'0 0.0
2017-Aug-10 14:58N 59°56' E 030°17'0 0.0
2017-Aug-10 14:28N 59°56' E 030°17'0 0.0
2017-Aug-10 13:58N 59°56' E 030°17'0 0.0
2017-Aug-10 13:28N 59°56' E 030°17'0 0.0
2017-Aug-10 12:58N 59°56' E 030°17'0 0.0
2017-Aug-10 12:28N 59°56' E 030°17'0 0.0
2017-Aug-10 11:58N 59°56' E 030°17'0 0.0
2017-Aug-10 11:28N 59°56' E 030°17'0 0.0
2017-Aug-10 10:55N 59°56' E 030°17'0 0.0
2017-Aug-10 10:28N 59°56' E 030°17'0 0.0
2017-Aug-10 09:58N 59°56' E 030°17'0 0.0
2017-Aug-10 09:28N 59°56' E 030°17'0 0.0
2017-Aug-10 08:58N 59°56' E 030°17'0 0.0
2017-Aug-10 08:28N 59°56' E 030°17'0 0.0
2017-Aug-10 07:58N 59°56' E 030°17'0 0.0
2017-Aug-10 07:28N 59°56' E 030°17'0 0.0
2017-Aug-10 06:58N 59°56' E 030°17'0 0.0
2017-Aug-10 06:28N 59°56' E 030°17'0 0.0
2017-Aug-10 05:58N 59°56' E 030°17'0 0.0
2017-Aug-10 05:28N 59°56' E 030°17'0 0.0
2017-Aug-10 04:58N 59°56' E 030°17'0 0.0
2017-Aug-10 04:28N 59°56' E 030°17'2 3.8
2017-Aug-10 04:00N 59°55' E 030°15'3 5.7
2017-Aug-10 03:30N 59°53' E 030°10'5 9.6
2017-Aug-10 03:00N 59°55' E 030°01'612.8
2017-Aug-10 02:30N 59°57' E 029°49'510.4
2017-Aug-10 02:00N 59°60' E 029°40'714.0
2017-Aug-10 01:30N 60°01' E 029°26'712.5
2017-Aug-10 00:59N 60°02' E 029°13'612.6
2017-Aug-10 00:28N 60°02' E 029°00'612.8
2017-Aug-10 00:00N 60°02' E 028°49'612.6
2017-Aug-09 23:30N 60°02' E 028°36'612.9
2017-Aug-09 23:00N 60°04' E 028°23'713.4
2017-Aug-09 22:30N 60°08' E 028°12'714.0
2017-Aug-09 22:00N 60°09' E 027°59'713.4
2017-Aug-09 21:30N 60°10' E 027°45'714.4
2017-Aug-09 21:00N 60°06' E 027°33'815.4
2017-Aug-09 20:31N 60°02' E 027°20'713.7
2017-Aug-09 20:01N 59°59' E 027°08'714.0
2017-Aug-09 19:31N 59°58' E 026°54'714.6
2017-Aug-09 19:01N 59°59' E 026°40'715.0
2017-Aug-09 18:31N 59°57' E 026°25'815.0
2017-Aug-09 18:00N 59°55' E 026°11'714.7
2017-Aug-09 17:31N 59°53' E 025°57'714.7
2017-Aug-09 17:00N 59°51' E 025°42'714.5
2017-Aug-09 16:30N 59°50' E 025°28'714.5
2017-Aug-09 16:01N 59°48' E 025°14'714.6
2017-Aug-09 15:31N 59°46' E 025°00'714.3
2017-Aug-09 15:01N 59°43' E 024°48'714.7
2017-Aug-09 14:30N 59°36' E 024°41'816.3
2017-Aug-09 14:00N 59°28' E 024°46'1 2.2
2017-Aug-09 13:29N 59°27' E 024°46'0 0.0
2017-Aug-09 12:59N 59°27' E 024°46'0 0.0
2017-Aug-09 12:29N 59°27' E 024°46'0 0.0
2017-Aug-09 11:59N 59°27' E 024°46'0 0.0
2017-Aug-09 11:29N 59°27' E 024°46'0 0.0
2017-Aug-09 10:59N 59°27' E 024°46'0 0.0
2017-Aug-09 10:29N 59°27' E 024°46'0 0.0
2017-Aug-09 09:59N 59°27' E 024°46'0 0.0
2017-Aug-09 09:29N 59°27' E 024°46'0 0.0
2017-Aug-09 08:59N 59°27' E 024°46'0 0.0
2017-Aug-09 08:29N 59°27' E 024°46'0 0.0
2017-Aug-09 07:59N 59°27' E 024°46'1 2.4
2017-Aug-09 07:30N 59°28' E 024°45'713.1
2017-Aug-09 07:01N 59°30' E 024°33'713.0
2017-Aug-09 06:30N 59°30' E 024°20'713.2
2017-Aug-09 06:01N 59°30' E 024°07'713.1
2017-Aug-09 05:31N 59°29' E 023°54'713.4
2017-Aug-09 05:00N 59°28' E 023°41'713.8
2017-Aug-09 04:31N 59°28' E 023°27'714.5
2017-Aug-09 04:00N 59°27' E 023°13'714.8
2017-Aug-09 03:30N 59°26' E 022°59'714.8
2017-Aug-09 03:01N 59°25' E 022°44'714.7
2017-Aug-09 02:31N 59°24' E 022°30'714.9
2017-Aug-09 02:01N 59°22' E 022°16'714.8
2017-Aug-09 01:30N 59°21' E 022°02'715.0
2017-Aug-09 01:01N 59°20' E 021°47'715.0
2017-Aug-09 00:31N 59°19' E 021°33'815.0
2017-Aug-09 00:01N 59°19' E 021°18'714.8
2017-Aug-08 23:31N 59°18' E 021°03'715.0
2017-Aug-08 23:01N 59°17' E 020°49'714.4
2017-Aug-08 22:30N 59°17' E 020°35'815.1
2017-Aug-08 22:00N 59°16' E 020°20'815.3
2017-Aug-08 21:30N 59°15' E 020°05'815.3
2017-Aug-08 21:00N 59°14' E 019°50'815.3
2017-Aug-08 20:30N 59°14' E 019°35'815.4
2017-Aug-08 20:00N 59°13' E 019°20'714.9
2017-Aug-08 19:30N 59°13' E 019°06'612.4
2017-Aug-08 19:00N 59°16' E 018°55'612.2
2017-Aug-08 18:30N 59°20' E 018°47'612.0
2017-Aug-08 18:00N 59°22' E 018°36'612.3
2017-Aug-08 17:30N 59°26' E 018°26'3 6.9
2017-Aug-08 17:00N 59°23' E 018°27'4 7.5
2017-Aug-08 16:30N 59°22' E 018°20'611.4
2017-Aug-08 16:00N 59°19' E 018°10'2 4.9
2017-Aug-08 15:30N 59°19' E 018°05'0 0.0
2017-Aug-08 15:00N 59°19' E 018°05'0 0.0
2017-Aug-08 14:30N 59°19' E 018°05'0 0.0
2017-Aug-08 14:00N 59°19' E 018°05'0 0.0
2017-Aug-08 13:30N 59°19' E 018°05'0 0.0
2017-Aug-08 13:00N 59°19' E 018°05'0 0.0
2017-Aug-08 12:30N 59°19' E 018°05'0 0.0
2017-Aug-08 12:00N 59°19' E 018°05'0 0.0
2017-Aug-08 11:30N 59°19' E 018°05'0 0.0
2017-Aug-08 10:57N 59°19' E 018°05'0 0.0
2017-Aug-08 10:30N 59°19' E 018°05'  
Track history (hours):
 
Tides and Currents Weather Stations Pressure Air Temp Water Temp Dewpoint Dewpoint Depression Visibility Wind Speed Wind Dir Waves Ship Positions

Silver Cloud

Operator: V Ships Leisure SAM

Last reported at 2017-Aug-18 10:29 UTC. Time now 2017-Aug-18 10:51 UTC.
Position N 55°43' E 012°38'.

Length 156 m; draft 5.7 m.

Type: Passenger vessel. MMSI: 309027000.

Date/timePositionNaut miles runAvg speedWind from/ knotsBaromVisibWave heightAir tempDewpointWater temp
2017-Aug-18 10:29N 55°43' E 012°38'0 0.0
2017-Aug-18 09:59N 55°43' E 012°38'0 0.0
2017-Aug-18 09:29N 55°43' E 012°38'0 0.0
2017-Aug-18 08:59N 55°43' E 012°38'0 0.0
2017-Aug-18 08:29N 55°43' E 012°38'0 0.0
2017-Aug-18 07:59N 55°43' E 012°38'0 0.0
2017-Aug-18 07:29N 55°43' E 012°38'0 0.0
2017-Aug-18 06:59N 55°43' E 012°38'0 0.0
2017-Aug-18 06:29N 55°43' E 012°38'0 0.0
2017-Aug-18 05:59N 55°43' E 012°38'0 0.0
2017-Aug-18 05:29N 55°43' E 012°38'0 0.0
2017-Aug-18 04:59N 55°43' E 012°38'0 0.0
2017-Aug-18 04:29N 55°43' E 012°38'0 0.0
2017-Aug-18 03:59N 55°43' E 012°38'0 0.0
2017-Aug-18 03:29N 55°43' E 012°38'0 0.0
2017-Aug-18 03:00N 55°43' E 012°38'2 3.7
2017-Aug-18 02:31N 55°44' E 012°41'510.4
2017-Aug-18 02:00N 55°39' E 012°42'611.6
2017-Aug-18 01:31N 55°33' E 012°43'4 7.4
2017-Aug-18 01:00N 55°29' E 012°43'510.1
2017-Aug-18 00:30N 55°24' E 012°41'510.3
2017-Aug-18 00:00N 55°19' E 012°41'510.1
2017-Aug-17 23:30N 55°17' E 012°49'510.4
2017-Aug-17 22:59N 55°15' E 012°58'5 9.6
2017-Aug-17 22:25N 55°11' E 013°04'410.0
2017-Aug-17 22:00N 55°08' E 013°08'15 9.8
2017-Aug-17 20:29N 54°56' E 013°24'5 9.8
2017-Aug-17 20:00N 54°52' E 013°29'5 9.9
2017-Aug-17 19:30N 54°48' E 013°33'5 9.9
2017-Aug-17 19:00N 54°43' E 013°38'5 9.8
2017-Aug-17 18:30N 54°39' E 013°42'5 9.7
2017-Aug-17 18:00N 54°35' E 013°44'4 8.8
2017-Aug-17 17:30N 54°30' E 013°43'4 8.5
2017-Aug-17 17:00N 54°28' E 013°36'1 0.1
2017-Aug-17 05:38N 54°29' E 013°35'0 1.0
2017-Aug-17 05:30N 54°29' E 013°35'3 5.9
2017-Aug-17 05:00N 54°28' E 013°40'714.0
2017-Aug-17 04:30N 54°28' E 013°52'713.1
2017-Aug-17 03:57N 54°29' E 014°05'714.1
2017-Aug-17 03:25N 54°31' E 014°17'614.8
2017-Aug-17 03:00N 54°32' E 014°28'715.0
2017-Aug-17 02:30N 54°34' E 014°40'815.1
2017-Aug-17 02:00N 54°36' E 014°52'815.2
2017-Aug-17 01:30N 54°37' E 015°05'815.6
2017-Aug-17 01:01N 54°39' E 015°18'815.5
2017-Aug-17 00:30N 54°41' E 015°32'815.6
2017-Aug-17 00:00N 54°43' E 015°45'815.4
2017-Aug-16 23:30N 54°44' E 015°58'816.4
2017-Aug-16 23:00N 54°46' E 016°11'816.1
2017-Aug-16 22:29N 54°48' E 016°26'1016.1
2017-Aug-16 21:51N 54°49' E 016°43'1016.3
2017-Aug-16 21:13N 54°52' E 017°00'3816.2
2017-Aug-16 18:51N 54°57' E 018°07'715.9
2017-Aug-16 18:26N 54°57' E 018°18'716.3
2017-Aug-16 18:00N 54°57' E 018°30'816.2
2017-Aug-16 17:30N 54°54' E 018°43'816.2
2017-Aug-16 17:00N 54°49' E 018°54'714.3
2017-Aug-16 16:30N 54°42' E 018°59'815.9
2017-Aug-16 16:00N 54°35' E 018°53'815.7
2017-Aug-16 15:30N 54°29' E 018°44'5 9.2
2017-Aug-16 15:00N 54°25' E 018°39'1 1.7
2017-Aug-16 14:29N 54°24' E 018°40'0 0.0
2017-Aug-16 13:59N 54°24' E 018°40'0 0.0
2017-Aug-16 13:29N 54°24' E 018°40'0 0.0
2017-Aug-16 12:59N 54°24' E 018°40'0 0.0
2017-Aug-16 12:29N 54°24' E 018°40'0 0.0
2017-Aug-16 11:59N 54°24' E 018°40'0 0.0
2017-Aug-16 11:29N 54°24' E 018°40'0 0.0
2017-Aug-16 10:59N 54°24' E 018°40'0 0.0
2017-Aug-16 10:29N 54°24' E 018°40'0 0.0
2017-Aug-16 09:59N 54°24' E 018°40'0 0.0
2017-Aug-16 09:29N 54°24' E 018°40'0 0.0
2017-Aug-16 08:59N 54°24' E 018°40'0 0.0
2017-Aug-16 08:29N 54°24' E 018°40'0 0.0
2017-Aug-16 07:59N 54°24' E 018°40'0 0.0
2017-Aug-16 07:29N 54°24' E 018°40'0 0.0
2017-Aug-16 06:59N 54°24' E 018°40'0 0.0
2017-Aug-16 06:29N 54°24' E 018°40'0 0.0
2017-Aug-16 05:59N 54°24' E 018°40'0 0.0
2017-Aug-16 05:29N 54°24' E 018°40'0 0.9
2017-Aug-16 05:01N 54°25' E 018°40'3 7.0
2017-Aug-16 04:31N 54°28' E 018°42'5 9.5
2017-Aug-16 04:01N 54°32' E 018°47'815.2
2017-Aug-16 03:30N 54°38' E 018°54'815.4
2017-Aug-16 03:00N 54°45' E 018°59'815.5
2017-Aug-16 02:30N 54°52' E 018°56'815.4
2017-Aug-16 02:00N 54°60' E 018°51'815.1
2017-Aug-16 01:30N 55°07' E 018°46'815.1
2017-Aug-16 01:01N 55°14' E 018°41'816.0
2017-Aug-16 00:30N 55°21' E 018°36'816.0
2017-Aug-16 00:00N 55°29' E 018°31'815.7
2017-Aug-15 23:30N 55°36' E 018°28'816.1
2017-Aug-15 23:00N 55°44' E 018°24'816.3
2017-Aug-15 22:30N 55°52' E 018°19'816.3
2017-Aug-15 22:00N 55°59' E 018°14'1116.0
2017-Aug-15 21:19N 56°10' E 018°08'516.2
2017-Aug-15 21:00N 56°15' E 018°07'816.2
2017-Aug-15 20:30N 56°23' E 018°03'816.3
2017-Aug-15 20:01N 56°31' E 018°01'816.3
2017-Aug-15 19:30N 56°39' E 017°57'816.4
2017-Aug-15 19:00N 56°47' E 017°55'816.4
2017-Aug-15 18:30N 56°55' E 017°52'816.5
2017-Aug-15 18:00N 57°03' E 017°50'816.2
2017-Aug-15 17:30N 57°11' E 017°47'32 2.7
2017-Aug-15 05:48N 57°38' E 018°17'1 2.5
2017-Aug-15 05:30N 57°38' E 018°15'4812.3
2017-Aug-15 01:38N 58°22' E 018°48'213.0
2017-Aug-15 01:30N 58°24' E 018°50'611.4
2017-Aug-15 01:01N 58°29' E 018°54'713.1
2017-Aug-15 00:30N 58°35' E 018°60'611.5
2017-Aug-15 00:00N 58°40' E 019°04'612.6
2017-Aug-14 23:30N 58°46' E 019°10'612.1
2017-Aug-14 23:00N 58°51' E 019°16'612.0
2017-Aug-14 22:30N 58°56' E 019°21'612.1
2017-Aug-14 22:00N 59°01' E 019°27'713.2
2017-Aug-14 21:30N 59°07' E 019°33'611.9
2017-Aug-14 21:00N 59°13' E 019°39'611.4
2017-Aug-14 20:30N 59°18' E 019°44'713.7
2017-Aug-14 20:00N 59°24' E 019°50'510.9
2017-Aug-14 19:30N 59°28' E 019°55'511.0
2017-Aug-14 19:00N 59°34' E 019°58'611.4
2017-Aug-14 18:30N 59°39' E 019°54'612.0
2017-Aug-14 18:00N 59°43' E 019°46'611.9
2017-Aug-14 17:30N 59°49' E 019°41'612.4
2017-Aug-14 17:00N 59°55' E 019°46'612.2
2017-Aug-14 16:30N 60°00' E 019°51'510.4
2017-Aug-14 16:00N 60°05' E 019°56'1 1.8
2017-Aug-14 15:30N 60°06' E 019°56'0 0.0
2017-Aug-14 15:00N 60°06' E 019°56'0 0.0
2017-Aug-14 14:30N 60°06' E 019°56'0 0.0
2017-Aug-14 14:00N 60°06' E 019°56'0 0.0
2017-Aug-14 13:30N 60°06' E 019°56'0 0.0
2017-Aug-14 13:00N 60°06' E 019°56'0 0.0
2017-Aug-14 12:30N 60°06' E 019°56'0 0.0
2017-Aug-14 12:00N 60°06' E 019°56'0 0.0
2017-Aug-14 11:30N 60°06' E 019°56'0 0.0
2017-Aug-14 11:00N 60°06' E 019°56'0 0.0
2017-Aug-14 10:30N 60°06' E 019°56'0 0.0
2017-Aug-14 10:00N 60°06' E 019°56'0 0.0
2017-Aug-14 09:30N 60°06' E 019°56'0 0.0
2017-Aug-14 09:00N 60°06' E 019°56'0 0.0
2017-Aug-14 08:30N 60°06' E 019°56'0 0.0
2017-Aug-14 08:00N 60°06' E 019°56'0 0.0
2017-Aug-14 07:30N 60°06' E 019°56'0 0.0
2017-Aug-14 07:00N 60°06' E 019°56'0 0.0
2017-Aug-14 06:30N 60°06' E 019°56'0 0.0
2017-Aug-14 06:00N 60°06' E 019°56'0 0.0
2017-Aug-14 05:30N 60°06' E 019°56'0 0.3
2017-Aug-14 05:01N 60°06' E 019°56'4 7.5
2017-Aug-14 04:30N 60°02' E 019°53'2 4.0
2017-Aug-14 04:00N 60°00' E 019°50'713.4
2017-Aug-14 03:31N 59°54' E 019°47'612.2
2017-Aug-14 03:00N 59°48' E 019°46'713.2
2017-Aug-14 02:31N 59°43' E 019°55'713.6
2017-Aug-14 02:01N 59°38' E 020°04'713.4
2017-Aug-14 01:30N 59°37' E 020°17'713.6
2017-Aug-14 01:00N 59°36' E 020°30'713.3
2017-Aug-14 00:30N 59°35' E 020°44'713.1
2017-Aug-14 00:00N 59°34' E 020°56'713.2
2017-Aug-13 23:31N 59°33' E 021°09'713.3
2017-Aug-13 23:01N 59°32' E 021°22'713.6
2017-Aug-13 22:31N 59°31' E 021°35'713.4
2017-Aug-13 22:01N 59°30' E 021°49'713.2
2017-Aug-13 21:30N 59°29' E 022°01'713.7
2017-Aug-13 21:00N 59°28' E 022°15'714.5
2017-Aug-13 20:30N 59°31' E 022°28'815.1
2017-Aug-13 20:00N 59°34' E 022°42'714.8
2017-Aug-13 19:30N 59°36' E 022°56'714.7
2017-Aug-13 19:00N 59°38' E 023°10'714.4
2017-Aug-13 18:30N 59°40' E 023°24'714.1
2017-Aug-13 18:01N 59°41' E 023°37'714.7
2017-Aug-13 17:31N 59°42' E 023°52'714.2
2017-Aug-13 17:01N 59°44' E 024°05'714.0
2017-Aug-13 16:30N 59°46' E 024°19'714.3
2017-Aug-13 16:01N 59°48' E 024°32'714.6
2017-Aug-13 15:31N 59°52' E 024°44'714.6
2017-Aug-13 15:01N 59°57' E 024°56'714.5
2017-Aug-13 14:30N 60°04' E 024°58'611.5
2017-Aug-13 14:00N 60°10' E 024°59'1 1.4
2017-Aug-13 13:28N 60°10' E 024°58'0 0.0
2017-Aug-13 12:58N 60°10' E 024°58'0 0.0
2017-Aug-13 12:28N 60°10' E 024°58'0 0.0
2017-Aug-13 11:58N 60°10' E 024°58'0 0.0
2017-Aug-13 11:28N 60°10' E 024°58'0 0.0
2017-Aug-13 10:58N 60°10' E 024°58'0 0.0
2017-Aug-13 10:28N 60°10' E 024°58'0 0.0
2017-Aug-13 09:58N 60°10' E 024°58'0 0.0
2017-Aug-13 09:28N 60°10' E 024°58'0 0.0
2017-Aug-13 08:58N 60°10' E 024°58'0 0.0
2017-Aug-13 08:28N 60°10' E 024°58'0 0.0
2017-Aug-13 07:58N 60°10' E 024°58'0 0.0
2017-Aug-13 07:28N 60°10' E 024°58'0 0.0
2017-Aug-13 07:00N 60°10' E 024°58'0 0.0
2017-Aug-13 06:30N 60°10' E 024°58'0 0.0
2017-Aug-13 06:00N 60°10' E 024°58'0 0.0
2017-Aug-13 05:30N 60°10' E 024°58'0 0.0
2017-Aug-13 05:00N 60°10' E 024°58'0 0.0
2017-Aug-13 04:30N 60°10' E 024°58'0 0.8
2017-Aug-13 04:00N 60°10' E 024°58'510.5
2017-Aug-13 03:31N 60°05' E 024°58'612.1
2017-Aug-13 03:00N 59°58' E 024°57'612.3
2017-Aug-13 02:30N 59°56' E 025°08'815.2
2017-Aug-13 02:00N 59°55' E 025°23'815.1
2017-Aug-13 01:31N 59°55' E 025°38'714.7
2017-Aug-13 01:00N 59°56' E 025°52'714.9
2017-Aug-13 00:30N 59°58' E 026°07'714.8
2017-Aug-13 00:00N 59°60' E 026°21'715.0
2017-Aug-12 23:30N 60°01' E 026°36'815.5
2017-Aug-12 23:00N 60°00' E 026°51'815.0
2017-Aug-12 22:30N 60°00' E 027°06'815.7
2017-Aug-12 22:00N 60°04' E 027°20'816.5
2017-Aug-12 21:30N 60°09' E 027°34'816.0
2017-Aug-12 21:00N 60°12' E 027°49'816.3
2017-Aug-12 20:30N 60°10' E 028°05'815.8
2017-Aug-12 20:00N 60°07' E 028°20'815.6
2017-Aug-12 19:30N 60°03' E 028°33'816.2
2017-Aug-12 19:00N 60°03' E 028°49'816.4
2017-Aug-12 18:30N 60°02' E 029°06'916.3
2017-Aug-12 17:58N 60°02' E 029°23'1212.6
2017-Aug-12 17:03N 59°59' E 029°46'010.2
2017-Aug-12 17:00N 59°59' E 029°46'611.2
2017-Aug-12 16:30N 59°56' E 029°56'611.3
2017-Aug-12 16:00N 59°54' E 030°07'3 6.4
2017-Aug-12 15:30N 59°54' E 030°13'3 6.0
2017-Aug-12 15:01N 59°56' E 030°17'0 0.3
2017-Aug-12 14:28N 59°56' E 030°17'0 0.0
2017-Aug-12 13:58N 59°56' E 030°17'0 0.0
2017-Aug-12 13:28N 59°56' E 030°17'0 0.0
2017-Aug-12 12:58N 59°56' E 030°17'0 0.0
2017-Aug-12 12:28N 59°56' E 030°17'0 0.0
2017-Aug-12 11:58N 59°56' E 030°17'0 0.0
2017-Aug-12 11:28N 59°56' E 030°17'0 0.0
2017-Aug-12 10:58N 59°56' E 030°17'0 0.0
2017-Aug-12 10:28N 59°56' E 030°17'0 0.0
2017-Aug-12 09:58N 59°56' E 030°17'0 0.0
2017-Aug-12 09:28N 59°56' E 030°17'0 0.0
2017-Aug-12 08:58N 59°56' E 030°17'0 0.0
2017-Aug-12 08:28N 59°56' E 030°17'0 0.0
2017-Aug-12 07:55N 59°56' E 030°17'0 0.0
2017-Aug-12 07:28N 59°56' E 030°17'0 0.0
2017-Aug-12 06:58N 59°56' E 030°17'0 0.0
2017-Aug-12 06:28N 59°56' E 030°17'0 0.0
2017-Aug-12 05:58N 59°56' E 030°17'0 0.0
2017-Aug-12 05:28N 59°56' E 030°17'0 0.0
2017-Aug-12 04:58N 59°56' E 030°17'0 0.0
2017-Aug-12 04:28N 59°56' E 030°17'0 0.0
2017-Aug-12 03:58N 59°56' E 030°17'0 0.0
2017-Aug-12 03:28N 59°56' E 030°17'0 0.0
2017-Aug-12 02:58N 59°56' E 030°17'0 0.0
2017-Aug-12 02:28N 59°56' E 030°17'0 0.0
2017-Aug-12 01:58N 59°56' E 030°17'0 0.0
2017-Aug-12 01:28N 59°56' E 030°17'0 0.0
2017-Aug-12 00:58N 59°56' E 030°17'0 0.0
2017-Aug-12 00:28N 59°56' E 030°17'0 0.0
2017-Aug-11 23:58N 59°56' E 030°17'0 0.0
2017-Aug-11 23:28N 59°56' E 030°17'0 0.0
2017-Aug-11 22:58N 59°56' E 030°17'0 0.0
2017-Aug-11 22:28N 59°56' E 030°17'0 0.0
2017-Aug-11 21:58N 59°56' E 030°17'0 0.0
2017-Aug-11 21:28N 59°56' E 030°17'0 0.0
2017-Aug-11 20:58N 59°56' E 030°17'0 0.0
2017-Aug-11 20:28N 59°56' E 030°17'0 0.0
2017-Aug-11 19:58N 59°56' E 030°17'0 0.0
2017-Aug-11 19:28N 59°56' E 030°17'0 0.0
2017-Aug-11 18:58N 59°56' E 030°17'0 0.0
2017-Aug-11 18:28N 59°56' E 030°17'0 0.0
2017-Aug-11 17:58N 59°56' E 030°17'0 0.0
2017-Aug-11 17:28N 59°56' E 030°17'0 0.0
2017-Aug-11 16:58N 59°56' E 030°17'0 0.0
2017-Aug-11 16:28N 59°56' E 030°17'0 0.0
2017-Aug-11 15:58N 59°56' E 030°17'0 0.0
2017-Aug-11 15:28N 59°56' E 030°17'0 0.0
2017-Aug-11 14:59N 59°56' E 030°17'0 0.0
2017-Aug-11 13:58N 59°56' E 030°17'0 0.0
2017-Aug-11 13:25N 59°56' E 030°17'0 0.0
2017-Aug-11 12:58N 59°56' E 030°17'0 0.0
2017-Aug-11 12:28N 59°56' E 030°17'0 0.0
2017-Aug-11 11:58N 59°56' E 030°17'0 0.0
2017-Aug-11 11:28N 59°56' E 030°17'0 0.0
2017-Aug-11 10:55N 59°56' E 030°17'0 0.0
2017-Aug-11 10:28N 59°56' E 030°17'0 0.0
2017-Aug-11 09:58N 59°56' E 030°17'0 0.0
2017-Aug-11 09:28N 59°56' E 030°17'0 0.0
2017-Aug-11 08:58N 59°56' E 030°17'0 0.0
2017-Aug-11 08:28N 59°56' E 030°17'0 0.0
2017-Aug-11 07:58N 59°56' E 030°17'0 0.0
2017-Aug-11 07:28N 59°56' E 030°17'0 0.0
2017-Aug-11 06:58N 59°56' E 030°17'0 0.0
2017-Aug-11 06:28N 59°56' E 030°17'0 0.0
2017-Aug-11 05:58N 59°56' E 030°17'0 0.0
2017-Aug-11 05:28N 59°56' E 030°17'0 0.0
2017-Aug-11 04:58N 59°56' E 030°17'0 0.0
2017-Aug-11 04:28N 59°56' E 030°17'0 0.0
2017-Aug-11 03:58N 59°56' E 030°17'0 0.0
2017-Aug-11 03:28N 59°56' E 030°17'0 0.0
2017-Aug-11 02:58N 59°56' E 030°17'0 0.0
2017-Aug-11 02:28N 59°56' E 030°17'0 0.0
2017-Aug-11 01:58N 59°56' E 030°17'0 0.0
2017-Aug-11 01:28N 59°56' E 030°17'0 0.0
2017-Aug-11 00:58N 59°56' E 030°17'0 0.0
2017-Aug-11 00:28N 59°56' E 030°17'0 0.0
2017-Aug-10 23:58N 59°56' E 030°17'0 0.0
2017-Aug-10 23:28N 59°56' E 030°17'0 0.0
2017-Aug-10 22:58N 59°56' E 030°17'0 0.0
2017-Aug-10 22:28N 59°56' E 030°17'0 0.0
2017-Aug-10 21:58N 59°56' E 030°17'0 0.0
2017-Aug-10 21:28N 59°56' E 030°17'0 0.0
2017-Aug-10 20:58N 59°56' E 030°17'0 0.0
2017-Aug-10 20:28N 59°56' E 030°17'0 0.0
2017-Aug-10 19:58N 59°56' E 030°17'0 0.0
2017-Aug-10 19:28N 59°56' E 030°17'0 0.0
2017-Aug-10 18:58N 59°56' E 030°17'0 0.0
2017-Aug-10 18:28N 59°56' E 030°17'0 0.0
2017-Aug-10 17:58N 59°56' E 030°17'0 0.0
2017-Aug-10 17:28N 59°56' E 030°17'0 0.0
2017-Aug-10 16:58N 59°56' E 030°17'0 0.0
2017-Aug-10 16:28N 59°56' E 030°17'0 0.0
2017-Aug-10 15:58N 59°56' E 030°17'0 0.0
2017-Aug-10 15:28N 59°56' E 030°17'0 0.0
2017-Aug-10 14:58N 59°56' E 030°17'0 0.0
2017-Aug-10 14:28N 59°56' E 030°17'0 0.0
2017-Aug-10 13:58N 59°56' E 030°17'0 0.0
2017-Aug-10 13:28N 59°56' E 030°17'0 0.0
2017-Aug-10 12:58N 59°56' E 030°17'0 0.0
2017-Aug-10 12:28N 59°56' E 030°17'0 0.0
2017-Aug-10 11:58N 59°56' E 030°17'0 0.0
2017-Aug-10 11:28N 59°56' E 030°17'0 0.0
2017-Aug-10 10:55N 59°56' E 030°17'0 0.0
2017-Aug-10 10:28N 59°56' E 030°17'0 0.0
2017-Aug-10 09:58N 59°56' E 030°17'0 0.0
2017-Aug-10 09:28N 59°56' E 030°17'0 0.0
2017-Aug-10 08:58N 59°56' E 030°17'0 0.0
2017-Aug-10 08:28N 59°56' E 030°17'0 0.0
2017-Aug-10 07:58N 59°56' E 030°17'0 0.0
2017-Aug-10 07:28N 59°56' E 030°17'0 0.0
2017-Aug-10 06:58N 59°56' E 030°17'0 0.0
2017-Aug-10 06:28N 59°56' E 030°17'0 0.0
2017-Aug-10 05:58N 59°56' E 030°17'0 0.0
2017-Aug-10 05:28N 59°56' E 030°17'0 0.0
2017-Aug-10 04:58N 59°56' E 030°17'0 0.0
2017-Aug-10 04:28N 59°56' E 030°17'2 3.8
2017-Aug-10 04:00N 59°55' E 030°15'3 5.7
2017-Aug-10 03:30N 59°53' E 030°10'5 9.6
2017-Aug-10 03:00N 59°55' E 030°01'612.8
2017-Aug-10 02:30N 59°57' E 029°49'510.4
2017-Aug-10 02:00N 59°60' E 029°40'714.0
2017-Aug-10 01:30N 60°01' E 029°26'712.5
2017-Aug-10 00:59N 60°02' E 029°13'612.6
2017-Aug-10 00:28N 60°02' E 029°00'612.8
2017-Aug-10 00:00N 60°02' E 028°49'612.6
2017-Aug-09 23:30N 60°02' E 028°36'612.9
2017-Aug-09 23:00N 60°04' E 028°23'713.4
2017-Aug-09 22:30N 60°08' E 028°12'714.0
2017-Aug-09 22:00N 60°09' E 027°59'713.4
2017-Aug-09 21:30N 60°10' E 027°45'714.4
2017-Aug-09 21:00N 60°06' E 027°33'815.4
2017-Aug-09 20:31N 60°02' E 027°20'713.7
2017-Aug-09 20:01N 59°59' E 027°08'714.0
2017-Aug-09 19:31N 59°58' E 026°54'714.6
2017-Aug-09 19:01N 59°59' E 026°40'715.0
2017-Aug-09 18:31N 59°57' E 026°25'815.0
2017-Aug-09 18:00N 59°55' E 026°11'714.7
2017-Aug-09 17:31N 59°53' E 025°57'714.7
2017-Aug-09 17:00N 59°51' E 025°42'714.5
2017-Aug-09 16:30N 59°50' E 025°28'714.5
2017-Aug-09 16:01N 59°48' E 025°14'714.6
2017-Aug-09 15:31N 59°46' E 025°00'714.3
2017-Aug-09 15:01N 59°43' E 024°48'714.7
2017-Aug-09 14:30N 59°36' E 024°41'816.3
2017-Aug-09 14:00N 59°28' E 024°46'1 2.2
2017-Aug-09 13:29N 59°27' E 024°46'0 0.0
2017-Aug-09 12:59N 59°27' E 024°46'0 0.0
2017-Aug-09 12:29N 59°27' E 024°46'0 0.0
2017-Aug-09 11:59N 59°27' E 024°46'0 0.0
2017-Aug-09 11:29N 59°27' E 024°46'0 0.0
2017-Aug-09 10:59N 59°27' E 024°46'0 0.0
2017-Aug-09 10:29N 59°27' E 024°46'0 0.0
2017-Aug-09 09:59N 59°27' E 024°46'0 0.0
2017-Aug-09 09:29N 59°27' E 024°46'0 0.0
2017-Aug-09 08:59N 59°27' E 024°46'0 0.0
2017-Aug-09 08:29N 59°27' E 024°46'0 0.0
2017-Aug-09 07:59N 59°27' E 024°46'1 2.4
2017-Aug-09 07:30N 59°28' E 024°45'713.1
2017-Aug-09 07:01N 59°30' E 024°33'713.0
2017-Aug-09 06:30N 59°30' E 024°20'713.2
2017-Aug-09 06:01N 59°30' E 024°07'713.1
2017-Aug-09 05:31N 59°29' E 023°54'713.4
2017-Aug-09 05:00N 59°28' E 023°41'713.8
2017-Aug-09 04:31N 59°28' E 023°27'714.5
2017-Aug-09 04:00N 59°27' E 023°13'714.8
2017-Aug-09 03:30N 59°26' E 022°59'714.8
2017-Aug-09 03:01N 59°25' E 022°44'714.7
2017-Aug-09 02:31N 59°24' E 022°30'714.9
2017-Aug-09 02:01N 59°22' E 022°16'714.8
2017-Aug-09 01:30N 59°21' E 022°02'715.0
2017-Aug-09 01:01N 59°20' E 021°47'715.0
2017-Aug-09 00:31N 59°19' E 021°33'815.0
2017-Aug-09 00:01N 59°19' E 021°18'714.8
2017-Aug-08 23:31N 59°18' E 021°03'715.0
2017-Aug-08 23:01N 59°17' E 020°49'714.4
2017-Aug-08 22:30N 59°17' E 020°35'815.1
2017-Aug-08 22:00N 59°16' E 020°20'815.3
2017-Aug-08 21:30N 59°15' E 020°05'815.3
2017-Aug-08 21:00N 59°14' E 019°50'815.3
2017-Aug-08 20:30N 59°14' E 019°35'815.4
2017-Aug-08 20:00N 59°13' E 019°20'714.9
2017-Aug-08 19:30N 59°13' E 019°06'612.4
2017-Aug-08 19:00N 59°16' E 018°55'612.2
2017-Aug-08 18:30N 59°20' E 018°47'612.0
2017-Aug-08 18:00N 59°22' E 018°36'612.3
2017-Aug-08 17:30N 59°26' E 018°26'3 6.9
2017-Aug-08 17:00N 59°23' E 018°27'4 7.5
2017-Aug-08 16:30N 59°22' E 018°20'611.4
2017-Aug-08 16:00N 59°19' E 018°10'2 4.9
2017-Aug-08 15:30N 59°19' E 018°05'0 0.0
2017-Aug-08 15:00N 59°19' E 018°05'0 0.0
2017-Aug-08 14:30N 59°19' E 018°05'0 0.0
2017-Aug-08 14:00N 59°19' E 018°05'0 0.0
2017-Aug-08 13:30N 59°19' E 018°05'0 0.0
2017-Aug-08 13:00N 59°19' E 018°05'0 0.0
2017-Aug-08 12:30N 59°19' E 018°05'0 0.0
2017-Aug-08 12:00N 59°19' E 018°05'0 0.0
2017-Aug-08 11:30N 59°19' E 018°05'0 0.0
2017-Aug-08 10:57N 59°19' E 018°05'0 0.0
2017-Aug-08 10:30N 59°19' E 018°05'  

Dump ship's entire track history